sensor_id;sensor_type;location;lat;lon;timestamp;P1;durP1;ratioP1;P2;durP2;ratioP2
38252;SDS011;24785;52.372;20.672;2023-05-27T00:08:02;7.18;;;2.10;;
38252;SDS011;24785;52.372;20.672;2023-05-27T00:18:03;11.90;;;3.08;;
38252;SDS011;24785;52.372;20.672;2023-05-27T00:28:05;13.55;;;2.28;;
38252;SDS011;24785;52.372;20.672;2023-05-27T00:38:06;8.00;;;2.53;;
38252;SDS011;24785;52.372;20.672;2023-05-27T00:48:07;7.55;;;2.50;;
38252;SDS011;24785;52.372;20.672;2023-05-27T00:58:08;9.60;;;2.40;;
38252;SDS011;24785;52.372;20.672;2023-05-27T01:08:22;14.10;;;2.78;;
38252;SDS011;24785;52.372;20.672;2023-05-27T01:18:31;12.60;;;2.72;;
38252;SDS011;24785;52.372;20.672;2023-05-27T01:28:33;13.33;;;2.40;;
38252;SDS011;24785;52.372;20.672;2023-05-27T01:38:35;7.18;;;2.25;;
38252;SDS011;24785;52.372;20.672;2023-05-27T01:48:40;11.73;;;3.55;;
38252;SDS011;24785;52.372;20.672;2023-05-27T01:58:41;11.88;;;2.53;;
38252;SDS011;24785;52.372;20.672;2023-05-27T02:08:42;10.57;;;2.60;;
38252;SDS011;24785;52.372;20.672;2023-05-27T02:18:43;13.55;;;2.25;;
38252;SDS011;24785;52.372;20.672;2023-05-27T02:28:44;14.07;;;3.05;;
38252;SDS011;24785;52.372;20.672;2023-05-27T02:38:45;12.57;;;2.72;;
38252;SDS011;24785;52.372;20.672;2023-05-27T02:48:46;11.25;;;3.10;;
38252;SDS011;24785;52.372;20.672;2023-05-27T02:58:47;18.00;;;3.10;;
38252;SDS011;24785;52.372;20.672;2023-05-27T03:08:48;13.15;;;2.78;;
38252;SDS011;24785;52.372;20.672;2023-05-27T03:18:49;13.93;;;3.40;;
38252;SDS011;24785;52.372;20.672;2023-05-27T03:28:50;12.60;;;2.50;;
38252;SDS011;24785;52.372;20.672;2023-05-27T03:38:51;14.90;;;3.47;;
38252;SDS011;24785;52.372;20.672;2023-05-27T03:48:52;20.58;;;3.13;;
38252;SDS011;24785;52.372;20.672;2023-05-27T03:58:53;16.30;;;3.38;;
38252;SDS011;24785;52.372;20.672;2023-05-27T04:08:54;11.48;;;2.63;;
38252;SDS011;24785;52.372;20.672;2023-05-27T04:18:55;12.20;;;3.60;;
38252;SDS011;24785;52.372;20.672;2023-05-27T04:28:56;11.30;;;2.70;;
38252;SDS011;24785;52.372;20.672;2023-05-27T04:39:00;12.90;;;3.22;;
38252;SDS011;24785;52.372;20.672;2023-05-27T04:49:05;11.13;;;3.15;;
38252;SDS011;24785;52.372;20.672;2023-05-27T04:59:05;13.73;;;2.63;;
38252;SDS011;24785;52.372;20.672;2023-05-27T05:09:06;7.43;;;2.20;;
38252;SDS011;24785;52.372;20.672;2023-05-27T05:19:12;12.02;;;3.15;;
38252;SDS011;24785;52.372;20.672;2023-05-27T05:29:13;8.52;;;2.70;;
38252;SDS011;24785;52.372;20.672;2023-05-27T05:39:14;8.75;;;2.60;;
38252;SDS011;24785;52.372;20.672;2023-05-27T05:49:15;12.73;;;2.35;;
38252;SDS011;24785;52.372;20.672;2023-05-27T05:59:18;6.10;;;1.80;;
38252;SDS011;24785;52.372;20.672;2023-05-27T06:09:19;7.15;;;2.45;;
38252;SDS011;24785;52.372;20.672;2023-05-27T06:19:20;7.00;;;1.95;;
38252;SDS011;24785;52.372;20.672;2023-05-27T06:29:21;8.73;;;1.90;;
38252;SDS011;24785;52.372;20.672;2023-05-27T06:39:22;5.47;;;1.95;;
38252;SDS011;24785;52.372;20.672;2023-05-27T06:49:23;4.63;;;1.20;;
38252;SDS011;24785;52.372;20.672;2023-05-27T06:59:24;3.83;;;1.30;;
38252;SDS011;24785;52.372;20.672;2023-05-27T07:09:25;5.85;;;1.40;;
38252;SDS011;24785;52.372;20.672;2023-05-27T07:19:25;6.22;;;2.03;;
38252;SDS011;24785;52.372;20.672;2023-05-27T07:29:26;2.22;;;1.13;;
38252;SDS011;24785;52.372;20.672;2023-05-27T07:39:27;7.35;;;1.30;;
38252;SDS011;24785;52.372;20.672;2023-05-27T07:49:28;3.28;;;1.38;;
38252;SDS011;24785;52.372;20.672;2023-05-27T07:59:29;5.97;;;1.20;;
38252;SDS011;24785;52.372;20.672;2023-05-27T08:09:30;2.28;;;0.90;;
38252;SDS011;24785;52.372;20.672;2023-05-27T08:19:32;2.13;;;1.00;;
38252;SDS011;24785;52.372;20.672;2023-05-27T08:29:33;5.35;;;1.20;;
38252;SDS011;24785;52.372;20.672;2023-05-27T08:39:34;3.35;;;1.10;;
38252;SDS011;24785;52.372;20.672;2023-05-27T08:49:35;4.50;;;1.15;;
38252;SDS011;24785;52.372;20.672;2023-05-27T08:59:36;4.80;;;1.38;;
38252;SDS011;24785;52.372;20.672;2023-05-27T09:09:40;5.47;;;1.35;;
38252;SDS011;24785;52.372;20.672;2023-05-27T09:19:44;2.47;;;1.05;;
38252;SDS011;24785;52.372;20.672;2023-05-27T09:29:47;6.97;;;1.13;;
38252;SDS011;24785;52.372;20.672;2023-05-27T09:39:51;2.00;;;0.80;;
38252;SDS011;24785;52.372;20.672;2023-05-27T09:49:52;4.80;;;1.10;;
38252;SDS011;24785;52.372;20.672;2023-05-27T09:59:54;5.20;;;1.70;;
38252;SDS011;24785;52.372;20.672;2023-05-27T10:09:56;3.97;;;1.00;;
38252;SDS011;24785;52.372;20.672;2023-05-27T10:19:56;4.53;;;1.23;;
38252;SDS011;24785;52.372;20.672;2023-05-27T10:29:58;1.52;;;0.80;;
38252;SDS011;24785;52.372;20.672;2023-05-27T10:40:02;2.83;;;0.90;;
38252;SDS011;24785;52.372;20.672;2023-05-27T10:50:09;4.32;;;1.10;;
38252;SDS011;24785;52.372;20.672;2023-05-27T11:00:13;3.58;;;1.00;;
38252;SDS011;24785;52.372;20.672;2023-05-27T11:10:19;3.38;;;1.08;;
38252;SDS011;24785;52.372;20.672;2023-05-27T11:20:20;3.70;;;1.00;;
38252;SDS011;24785;52.372;20.672;2023-05-27T11:30:24;2.35;;;0.95;;
38252;SDS011;24785;52.372;20.672;2023-05-27T11:40:26;2.65;;;1.00;;
38252;SDS011;24785;52.372;20.672;2023-05-27T11:50:27;2.28;;;0.90;;
38252;SDS011;24785;52.372;20.672;2023-05-27T12:00:28;2.28;;;1.05;;
38252;SDS011;24785;52.372;20.672;2023-05-27T12:10:30;2.65;;;0.90;;
38252;SDS011;24785;52.372;20.672;2023-05-27T12:20:31;2.83;;;0.82;;
38252;SDS011;24785;52.372;20.672;2023-05-27T12:30:32;2.45;;;1.00;;
38252;SDS011;24785;52.372;20.672;2023-05-27T12:40:34;3.10;;;1.00;;
38252;SDS011;24785;52.372;20.672;2023-05-27T12:50:35;1.98;;;0.90;;
38252;SDS011;24785;52.372;20.672;2023-05-27T13:00:36;1.77;;;0.82;;
38252;SDS011;24785;52.372;20.672;2023-05-27T13:10:37;2.65;;;0.90;;
38252;SDS011;24785;52.372;20.672;2023-05-27T13:20:38;2.28;;;0.80;;
38252;SDS011;24785;52.372;20.672;2023-05-27T13:30:39;2.25;;;1.00;;
38252;SDS011;24785;52.372;20.672;2023-05-27T13:40:41;3.87;;;1.00;;
38252;SDS011;24785;52.372;20.672;2023-05-27T13:50:42;3.72;;;1.08;;
38252;SDS011;24785;52.372;20.672;2023-05-27T14:00:43;4.70;;;1.35;;
38252;SDS011;24785;52.372;20.672;2023-05-27T14:10:44;3.25;;;1.10;;
38252;SDS011;24785;52.372;20.672;2023-05-27T14:20:45;2.13;;;0.80;;
38252;SDS011;24785;52.372;20.672;2023-05-27T14:30:46;3.10;;;1.13;;
38252;SDS011;24785;52.372;20.672;2023-05-27T14:40:47;4.38;;;1.35;;
38252;SDS011;24785;52.372;20.672;2023-05-27T14:50:50;4.75;;;1.42;;
38252;SDS011;24785;52.372;20.672;2023-05-27T15:00:51;5.22;;;1.30;;
38252;SDS011;24785;52.372;20.672;2023-05-27T15:10:52;4.50;;;1.10;;
38252;SDS011;24785;52.372;20.672;2023-05-27T15:20:53;3.25;;;1.05;;
38252;SDS011;24785;52.372;20.672;2023-05-27T15:30:54;3.83;;;0.90;;
38252;SDS011;24785;52.372;20.672;2023-05-27T15:40:56;2.40;;;1.00;;
38252;SDS011;24785;52.372;20.672;2023-05-27T15:50:56;3.05;;;0.90;;
38252;SDS011;24785;52.372;20.672;2023-05-27T16:00:57;9.25;;;1.00;;
38252;SDS011;24785;52.372;20.672;2023-05-27T16:10:58;7.55;;;1.35;;
38252;SDS011;24785;52.372;20.672;2023-05-27T16:20:59;3.95;;;1.10;;
38252;SDS011;24785;52.372;20.672;2023-05-27T16:31:00;4.13;;;1.20;;
38252;SDS011;24785;52.372;20.672;2023-05-27T16:41:02;10.55;;;3.88;;
38252;SDS011;24785;52.372;20.672;2023-05-27T16:51:03;2.15;;;1.30;;
38252;SDS011;24785;52.372;20.672;2023-05-27T17:01:04;3.65;;;1.20;;
38252;SDS011;24785;52.372;20.672;2023-05-27T17:11:05;2.35;;;0.90;;
38252;SDS011;24785;52.372;20.672;2023-05-27T17:21:06;3.53;;;1.00;;
38252;SDS011;24785;52.372;20.672;2023-05-27T17:31:07;3.40;;;0.90;;
38252;SDS011;24785;52.372;20.672;2023-05-27T17:41:08;3.10;;;1.30;;
38252;SDS011;24785;52.372;20.672;2023-05-27T17:51:11;2.28;;;1.23;;
38252;SDS011;24785;52.372;20.672;2023-05-27T18:01:12;5.82;;;1.40;;
38252;SDS011;24785;52.372;20.672;2023-05-27T18:11:12;8.15;;;1.60;;
38252;SDS011;24785;52.372;20.672;2023-05-27T18:21:14;3.13;;;1.30;;
38252;SDS011;24785;52.372;20.672;2023-05-27T18:31:15;4.10;;;1.27;;
38252;SDS011;24785;52.372;20.672;2023-05-27T18:41:17;4.10;;;1.20;;
38252;SDS011;24785;52.372;20.672;2023-05-27T18:51:18;4.47;;;1.30;;
38252;SDS011;24785;52.372;20.672;2023-05-27T19:01:19;12.25;;;2.03;;
38252;SDS011;24785;52.372;20.672;2023-05-27T19:11:21;6.07;;;1.80;;
38252;SDS011;24785;52.372;20.672;2023-05-27T19:21:22;3.35;;;1.50;;
38252;SDS011;24785;52.372;20.672;2023-05-27T19:31:25;4.03;;;1.80;;
38252;SDS011;24785;52.372;20.672;2023-05-27T19:41:26;9.93;;;3.92;;
38252;SDS011;24785;52.372;20.672;2023-05-27T19:51:27;12.80;;;5.18;;
38252;SDS011;24785;52.372;20.672;2023-05-27T20:01:28;8.48;;;2.33;;
38252;SDS011;24785;52.372;20.672;2023-05-27T20:11:29;13.85;;;2.47;;
38252;SDS011;24785;52.372;20.672;2023-05-27T20:21:30;18.58;;;6.97;;
38252;SDS011;24785;52.372;20.672;2023-05-27T20:31:31;11.75;;;4.72;;
38252;SDS011;24785;52.372;20.672;2023-05-27T20:41:34;15.70;;;5.73;;
38252;SDS011;24785;52.372;20.672;2023-05-27T20:51:35;14.15;;;5.93;;
38252;SDS011;24785;52.372;20.672;2023-05-27T21:01:37;14.03;;;5.43;;
38252;SDS011;24785;52.372;20.672;2023-05-27T21:11:39;17.63;;;5.87;;
38252;SDS011;24785;52.372;20.672;2023-05-27T21:21:40;12.23;;;3.63;;
38252;SDS011;24785;52.372;20.672;2023-05-27T21:31:41;14.02;;;4.72;;
38252;SDS011;24785;52.372;20.672;2023-05-27T21:41:41;14.07;;;4.93;;
38252;SDS011;24785;52.372;20.672;2023-05-27T21:51:42;12.90;;;3.88;;
38252;SDS011;24785;52.372;20.672;2023-05-27T22:01:44;8.05;;;2.63;;
38252;SDS011;24785;52.372;20.672;2023-05-27T22:11:44;10.52;;;3.55;;
38252;SDS011;24785;52.372;20.672;2023-05-27T22:21:45;15.25;;;5.38;;
38252;SDS011;24785;52.372;20.672;2023-05-27T22:31:46;14.38;;;5.78;;
38252;SDS011;24785;52.372;20.672;2023-05-27T22:41:47;11.60;;;4.75;;
38252;SDS011;24785;52.372;20.672;2023-05-27T22:51:48;15.05;;;5.63;;
38252;SDS011;24785;52.372;20.672;2023-05-27T23:01:49;18.70;;;5.85;;
38252;SDS011;24785;52.372;20.672;2023-05-27T23:11:50;23.92;;;6.60;;
38252;SDS011;24785;52.372;20.672;2023-05-27T23:21:50;18.15;;;7.20;;
38252;SDS011;24785;52.372;20.672;2023-05-27T23:31:51;14.60;;;5.78;;
38252;SDS011;24785;52.372;20.672;2023-05-27T23:41:52;15.80;;;5.63;;
38252;SDS011;24785;52.372;20.672;2023-05-27T23:51:54;10.63;;;4.50;;
